createdAt,value
2022-08-09T00:00:15.954Z,13.16
2022-08-09T00:04:00.081Z,13.09
2022-08-09T00:06:19.549Z,13.06
2022-08-09T00:09:09.665Z,13.00
2022-08-09T00:12:02.740Z,12.96
2022-08-09T00:14:56.737Z,12.91
2022-08-09T00:18:09.424Z,12.86
2022-08-09T00:20:50.233Z,12.79
2022-08-09T00:23:56.142Z,12.73
2022-08-09T00:26:43.670Z,12.69
2022-08-09T00:30:10.196Z,12.67
2022-08-09T00:32:38.975Z,12.61
2022-08-09T00:35:25.114Z,12.62
2022-08-09T00:38:16.124Z,12.59
2022-08-09T00:41:08.282Z,12.54
2022-08-09T00:44:15.690Z,12.51
2022-08-09T00:47:04.978Z,12.49
2022-08-09T00:49:55.137Z,12.48
2022-08-09T00:52:42.822Z,12.46
2022-08-09T00:56:03.658Z,12.42
2022-08-09T00:58:37.105Z,12.38
2022-08-09T01:01:44.618Z,12.34
2022-08-09T01:04:55.725Z,12.29
2022-08-09T01:08:01.654Z,12.23
2022-08-09T01:11:26.058Z,12.17
2022-08-09T01:14:28.499Z,12.10
2022-08-09T01:17:30.411Z,12.07
2022-08-09T01:20:29.213Z,12.05
2022-08-09T01:24:02.107Z,12.03
2022-08-09T01:26:57.555Z,12.02
2022-08-09T01:29:55.810Z,11.96
2022-08-09T01:32:46.370Z,11.91
2022-08-09T01:35:51.813Z,11.86
2022-08-09T01:38:46.297Z,11.84
2022-08-09T01:41:35.814Z,11.81
2022-08-09T01:44:24.106Z,11.78
2022-08-09T01:47:13.424Z,11.74
2022-08-09T01:50:08.393Z,11.68
2022-08-09T01:52:56.724Z,11.61
2022-08-09T01:55:43.260Z,11.59
2022-08-09T01:58:33.981Z,11.54
2022-08-09T02:01:30.552Z,11.50
2022-08-09T02:04:31.995Z,11.44
2022-08-09T02:08:40.463Z,11.38
2022-08-09T02:10:34.332Z,11.37
2022-08-09T02:13:26.231Z,11.31
2022-08-09T02:16:33.669Z,11.31
2022-08-09T02:19:21.800Z,11.27
2022-08-09T02:22:38.083Z,11.24
2022-08-09T02:28:30.910Z,11.19
2022-08-09T02:31:31.301Z,11.15
2022-08-09T02:34:41.671Z,11.12
2022-08-09T02:37:37.290Z,11.09
2022-08-09T02:40:26.940Z,11.02
2022-08-09T02:43:19.470Z,10.99
2022-08-09T02:46:10.842Z,10.91
2022-08-09T02:49:04.839Z,10.86
2022-08-09T02:51:56.099Z,10.85
2022-08-09T02:54:53.977Z,10.82
2022-08-09T02:58:00.358Z,10.79
2022-08-09T03:00:58.746Z,10.73
2022-08-09T03:04:17.316Z,10.65
2022-08-09T03:06:53.431Z,10.59
2022-08-09T03:09:42.972Z,10.56
2022-08-09T03:12:30.590Z,10.54
2022-08-09T03:15:17.464Z,10.53
2022-08-09T03:18:09.723Z,10.48
2022-08-09T03:20:58.821Z,10.43
2022-08-09T03:24:04.841Z,10.42
2022-08-09T03:26:53.531Z,10.36
2022-08-09T03:29:43.200Z,10.31
2022-08-09T03:32:45.689Z,10.28
2022-08-09T03:35:44.451Z,10.30
2022-08-09T03:38:42.028Z,10.27
2022-08-09T03:41:30.329Z,10.25
2022-08-09T03:44:32.140Z,10.23
2022-08-09T03:47:17.930Z,10.22
2022-08-09T03:50:06.796Z,10.13
2022-08-09T03:52:58.578Z,10.13
2022-08-09T03:55:45.530Z,10.14
2022-08-09T03:58:32.782Z,10.12
2022-08-09T04:01:19.332Z,10.12
2022-08-09T04:04:10.104Z,10.12
2022-08-09T04:07:01.032Z,10.13
2022-08-09T04:09:54.532Z,10.13
2022-08-09T04:12:48.207Z,10.12
2022-08-09T04:16:17.110Z,10.14
2022-08-09T04:18:43.501Z,10.17
2022-08-09T04:21:36.334Z,10.25
2022-08-09T04:24:26.946Z,10.64
2022-08-09T04:27:13.277Z,11.17
2022-08-09T04:30:00.572Z,11.69
2022-08-09T04:32:48.178Z,12.17
2022-08-09T04:35:34.838Z,12.66
2022-08-09T04:38:21.406Z,13.16
2022-08-09T04:41:09.790Z,13.70
2022-08-09T04:44:07.103Z,14.12
2022-08-09T04:47:04.605Z,14.60
2022-08-09T04:49:55.701Z,15.06
2022-08-09T04:52:42.373Z,15.42
2022-08-09T04:55:37.917Z,15.68
2022-08-09T04:58:29.083Z,15.82
2022-08-09T05:01:18.914Z,15.98
2022-08-09T05:04:05.091Z,16.24
2022-08-09T05:06:51.730Z,16.73
2022-08-09T05:09:45.393Z,17.32
2022-08-09T05:12:36.588Z,17.96
2022-08-09T05:15:39.079Z,18.51
2022-08-09T05:18:42.487Z,19.03
2022-08-09T05:21:47.282Z,19.27
2022-08-09T05:24:42.453Z,19.55
2022-08-09T05:27:33.474Z,19.87
2022-08-09T05:30:25.005Z,20.23
2022-08-09T05:33:16.486Z,20.25
2022-08-09T05:36:04.164Z,20.35
2022-08-09T05:38:53.342Z,20.74
2022-08-09T05:41:39.466Z,21.13
2022-08-09T05:44:28.986Z,21.59
2022-08-09T05:47:23.733Z,21.95
2022-08-09T05:50:30.563Z,22.35
2022-08-09T05:53:21.765Z,22.46
2022-08-09T05:56:18.211Z,22.48
2022-08-09T05:59:08.732Z,22.70
2022-08-09T06:01:58.958Z,22.98
2022-08-09T06:04:46.053Z,23.28
2022-08-09T06:07:31.942Z,23.56
2022-08-09T06:10:18.047Z,23.52
2022-08-09T06:16:11.443Z,23.60
2022-08-09T06:21:58.725Z,23.67
2022-08-09T06:24:41.618Z,23.68
2022-08-09T06:27:43.092Z,23.67
2022-08-09T06:30:33.899Z,23.83
2022-08-09T06:33:41.217Z,23.59
2022-08-09T06:36:29.830Z,23.08
2022-08-09T06:39:16.020Z,23.08
2022-08-09T06:42:09.434Z,23.23
2022-08-09T06:44:55.530Z,23.30
2022-08-09T06:47:43.761Z,23.20
2022-08-09T06:50:31.886Z,22.91
2022-08-09T06:53:18.162Z,22.43
2022-08-09T06:56:09.521Z,21.90
2022-08-09T07:00:55.851Z,21.27
2022-08-09T07:02:03.737Z,20.87
2022-08-09T07:04:51.826Z,20.75
2022-08-09T07:07:58.805Z,20.70
2022-08-09T07:10:44.731Z,20.49
2022-08-09T07:13:45.315Z,20.22
2022-08-09T07:16:41.708Z,19.98
2022-08-09T07:19:30.331Z,19.74
2022-08-09T07:22:17.086Z,19.57
2022-08-09T07:25:09.756Z,19.47
2022-08-09T07:27:55.859Z,19.40
2022-08-09T07:30:41.991Z,19.27
2022-08-09T07:33:28.099Z,19.21
2022-08-09T07:36:34.749Z,19.11
2022-08-09T07:39:40.074Z,19.10
2022-08-09T07:42:32.832Z,19.05
2022-08-09T07:45:38.007Z,19.00
2022-08-09T07:48:30.456Z,18.99
2022-08-09T07:52:06.230Z,19.04
2022-08-09T07:54:30.152Z,19.05
2022-08-09T07:57:17.108Z,19.08
2022-08-09T08:00:04.355Z,19.08
2022-08-09T08:03:08.265Z,19.09
2022-08-09T08:05:58.190Z,19.09
2022-08-09T08:09:03.157Z,19.11
2022-08-09T08:12:10.953Z,19.16
2022-08-09T08:14:57.271Z,19.26
2022-08-09T08:17:53.248Z,19.35
2022-08-09T08:20:42.880Z,19.45
2022-08-09T08:23:29.829Z,19.47
2022-08-09T08:26:26.749Z,19.49
2022-08-09T08:29:28.627Z,19.55
2022-08-09T08:32:29.452Z,19.70
2022-08-09T08:35:18.122Z,19.86
2022-08-09T08:38:09.214Z,19.97
2022-08-09T08:40:59.571Z,20.11
2022-08-09T08:43:46.054Z,20.23
2022-08-09T08:46:41.395Z,20.35
2022-08-09T08:49:49.413Z,20.40
2022-08-09T08:52:57.683Z,20.47
2022-08-09T08:55:46.357Z,20.60
2022-08-09T08:58:36.414Z,20.77
2022-08-09T09:01:25.045Z,20.90
2022-08-09T09:04:26.804Z,20.96
2022-08-09T09:07:15.499Z,21.03
2022-08-09T09:10:09.080Z,21.08
2022-08-09T09:12:56.299Z,21.07
2022-08-09T09:15:42.482Z,21.09
2022-08-09T09:18:39.458Z,21.27
2022-08-09T09:21:26.434Z,21.45
2022-08-09T09:24:21.613Z,21.50
2022-08-09T09:27:07.442Z,21.54
2022-08-09T09:30:13.908Z,21.64
2022-08-09T09:33:14.352Z,21.62
2022-08-09T09:36:19.990Z,21.70
2022-08-09T09:39:10.137Z,21.83
2022-08-09T09:41:57.695Z,21.78
2022-08-09T09:44:44.122Z,21.67
2022-08-09T09:47:32.973Z,21.68
2022-08-09T09:50:51.302Z,21.73
2022-08-09T09:53:57.172Z,21.80
2022-08-09T09:58:02.472Z,21.85
2022-08-09T10:00:22.176Z,21.96
2022-08-09T10:03:14.092Z,22.11
2022-08-09T10:06:04.841Z,22.25
2022-08-09T10:09:48.870Z,22.39
2022-08-09T10:12:43.801Z,22.52
2022-08-09T10:16:55.450Z,22.57
2022-08-09T10:19:03.339Z,22.74
2022-08-09T10:21:52.511Z,22.81
2022-08-09T10:24:40.636Z,22.88
2022-08-09T10:27:28.600Z,22.99
2022-08-09T10:36:29.278Z,23.00
2022-08-09T10:39:19.321Z,23.05
2022-08-09T10:42:06.281Z,23.14
2022-08-09T10:45:04.348Z,23.30
2022-08-09T10:48:29.762Z,23.49
2022-08-09T10:51:56.176Z,23.43
2022-08-09T10:54:44.079Z,23.28
2022-08-09T10:57:37.890Z,23.24
2022-08-09T11:00:56.906Z,23.34
2022-08-09T11:04:19.470Z,23.48
2022-08-09T11:07:15.398Z,23.44
2022-08-09T11:10:00.766Z,23.37
2022-08-09T11:13:49.045Z,23.35
2022-08-09T11:16:39.225Z,23.32
2022-08-09T11:20:11.927Z,23.29
2022-08-09T11:23:00.785Z,23.39
2022-08-09T11:25:49.278Z,23.45
2022-08-09T11:28:55.641Z,23.60
2022-08-09T11:31:49.774Z,23.72
2022-08-09T11:38:41.519Z,23.70
2022-08-09T11:41:38.449Z,23.82
2022-08-09T11:45:01.809Z,23.97
2022-08-09T11:48:30.350Z,23.99
2022-08-09T11:53:00.959Z,24.09
2022-08-09T11:54:33.394Z,24.12
2022-08-09T11:58:48.159Z,24.20
2022-08-09T12:02:17.753Z,24.31
2022-08-09T12:04:43.285Z,24.48
2022-08-09T12:07:41.446Z,24.38
2022-08-09T12:11:04.051Z,24.23
2022-08-09T12:14:07.918Z,24.38
2022-08-09T12:16:58.237Z,24.51
2022-08-09T12:19:43.682Z,24.46
2022-08-09T12:22:29.841Z,24.40
2022-08-09T12:29:12.313Z,24.21
2022-08-09T12:31:30.835Z,24.10
2022-08-09T12:34:43.682Z,24.16
2022-08-09T12:37:50.600Z,24.42
2022-08-09T12:40:45.690Z,24.59
2022-08-09T12:44:06.422Z,24.64
2022-08-09T12:46:48.876Z,24.77
2022-08-09T12:49:38.578Z,24.87
2022-08-09T12:52:43.001Z,24.91
2022-08-09T12:56:12.617Z,24.78
2022-08-09T12:58:42.489Z,24.63
2022-08-09T13:01:29.375Z,24.54
2022-08-09T13:04:37.683Z,24.48
2022-08-09T13:07:50.447Z,24.50
2022-08-09T13:10:34.576Z,24.48
2022-08-09T13:14:37.222Z,24.63
2022-08-09T13:16:48.220Z,24.66
2022-08-09T13:20:09.909Z,24.71
2022-08-09T13:23:01.586Z,24.84
2022-08-09T13:25:53.230Z,24.88
2022-08-09T13:32:45.923Z,24.89
2022-08-09T13:36:24.549Z,24.75
2022-08-09T13:39:34.131Z,24.58
2022-08-09T13:42:13.072Z,24.64
2022-08-09T13:45:15.368Z,24.64
2022-08-09T13:48:03.280Z,24.75
2022-08-09T13:51:29.247Z,24.74
2022-08-09T13:54:15.792Z,24.67
2022-08-09T13:57:40.068Z,24.67
2022-08-09T14:00:28.906Z,24.85
2022-08-09T14:04:01.312Z,25.04
2022-08-09T14:06:26.491Z,25.23
2022-08-09T14:09:12.639Z,25.26
2022-08-09T14:12:01.054Z,25.09
2022-08-09T14:14:53.690Z,25.05
2022-08-09T14:18:06.826Z,25.01
2022-08-09T14:20:49.151Z,25.12
2022-08-09T14:23:39.994Z,25.19
2022-08-09T14:26:34.186Z,25.10
2022-08-09T14:30:18.477Z,24.99
2022-08-09T14:32:28.728Z,24.88
2022-08-09T14:35:17.477Z,24.82
2022-08-09T14:38:04.446Z,24.82
2022-08-09T14:41:01.046Z,24.88
2022-08-09T14:43:53.363Z,24.94
2022-08-09T14:47:04.836Z,25.07
2022-08-09T14:53:52.414Z,25.11
2022-08-09T14:56:58.024Z,25.08
2022-08-09T14:59:48.536Z,25.01
2022-08-09T15:02:34.674Z,24.91
2022-08-09T15:05:21.698Z,24.78
2022-08-09T15:08:10.424Z,24.79
2022-08-09T15:11:00.342Z,24.86
2022-08-09T15:13:56.656Z,25.16
2022-08-09T15:16:50.483Z,25.26
2022-08-09T15:19:36.879Z,25.26
2022-08-09T15:22:22.541Z,25.25
2022-08-09T15:25:11.737Z,25.08
2022-08-09T15:28:01.492Z,24.84
2022-08-09T15:30:58.328Z,24.76
2022-08-09T15:34:17.439Z,24.85
2022-08-09T15:36:54.691Z,24.97
2022-08-09T15:39:54.891Z,25.07
2022-08-09T15:42:42.481Z,25.18
2022-08-09T15:45:29.473Z,25.30
2022-08-09T15:48:28.785Z,25.36
2022-08-09T15:51:44.287Z,25.43
2022-08-09T15:54:22.018Z,25.33
2022-08-09T15:57:18.917Z,25.27
2022-08-09T16:00:25.136Z,25.22
2022-08-09T16:03:12.244Z,25.18
2022-08-09T16:06:29.509Z,25.01
2022-08-09T16:09:18.834Z,24.83
2022-08-09T16:12:18.169Z,24.71
2022-08-09T16:15:05.479Z,24.57
2022-08-09T16:18:11.472Z,24.52
2022-08-09T16:20:57.807Z,24.54
2022-08-09T16:23:50.647Z,24.59
2022-08-09T16:26:37.596Z,24.70
2022-08-09T16:29:36.740Z,24.75
2022-08-09T16:32:43.517Z,24.76
2022-08-09T16:35:57.077Z,24.80
2022-08-09T16:38:44.836Z,24.81
2022-08-09T16:42:02.650Z,24.89
2022-08-09T16:44:42.826Z,24.86
2022-08-09T16:48:39.644Z,24.83
2022-08-09T16:50:34.705Z,24.81
2022-08-09T16:53:20.525Z,24.79
2022-08-09T16:56:10.709Z,24.81
2022-08-09T16:58:56.660Z,24.95
2022-08-09T17:01:51.063Z,25.05
2022-08-09T17:04:37.199Z,25.09
2022-08-09T17:08:44.906Z,25.07
2022-08-09T17:10:28.421Z,24.97
2022-08-09T17:13:15.795Z,24.90
2022-08-09T17:16:02.240Z,24.86
2022-08-09T17:18:48.566Z,24.78
2022-08-09T17:21:34.071Z,24.67
2022-08-09T17:24:27.344Z,24.61
2022-08-09T17:27:16.054Z,24.53
2022-08-09T17:30:06.778Z,24.47
2022-08-09T17:33:05.000Z,24.38
2022-08-09T17:35:51.583Z,24.32
2022-08-09T17:38:39.478Z,24.29
2022-08-09T17:41:38.786Z,24.24
2022-08-09T17:44:42.225Z,24.18
2022-08-09T17:47:31.144Z,24.16
2022-08-09T17:50:37.221Z,24.16
2022-08-09T17:53:23.479Z,24.12
2022-08-09T17:56:09.677Z,24.09
2022-08-09T17:59:11.993Z,24.01
2022-08-09T18:02:11.255Z,23.91
2022-08-09T18:05:00.358Z,23.85
2022-08-09T18:07:48.747Z,23.78
2022-08-09T18:10:34.457Z,23.69
2022-08-09T18:13:53.653Z,23.62
2022-08-09T18:16:30.245Z,23.53
2022-08-09T18:20:55.740Z,23.48
2022-08-09T18:22:25.700Z,23.42
2022-08-09T18:25:20.605Z,23.36
2022-08-09T18:30:41.745Z,23.28
2022-08-09T18:37:47.311Z,22.91
2022-08-09T18:43:53.459Z,22.39
2022-08-09T18:47:07.661Z,22.12
2022-08-09T18:49:54.783Z,21.94
2022-08-09T18:52:46.709Z,21.85
2022-08-09T19:01:28.934Z,21.42
2022-08-09T19:04:35.233Z,21.27
2022-08-09T19:13:18.597Z,20.85
2022-08-09T19:16:06.706Z,20.68
2022-08-09T19:21:52.305Z,20.40
2022-08-09T19:25:11.937Z,20.27
2022-08-09T19:27:56.412Z,20.07
2022-08-09T19:30:44.471Z,19.94
2022-08-09T19:33:31.295Z,19.79
2022-08-09T19:36:20.782Z,19.66
2022-08-09T19:39:09.146Z,19.59
2022-08-09T19:41:57.195Z,19.47
2022-08-09T19:44:43.886Z,19.36
2022-08-09T19:47:38.110Z,19.24
2022-08-09T19:50:50.733Z,19.10
2022-08-09T19:53:30.856Z,18.96
2022-08-09T19:56:34.024Z,18.82
2022-08-09T19:59:57.416Z,18.73
2022-08-09T20:04:11.316Z,18.60
2022-08-09T20:05:46.015Z,18.48
2022-08-09T20:08:35.299Z,18.37
2022-08-09T20:11:26.138Z,18.28
2022-08-09T20:14:15.289Z,18.19
2022-08-09T20:17:01.889Z,18.15
2022-08-09T20:19:54.257Z,18.10
2022-08-09T20:22:42.774Z,18.06
2022-08-09T20:25:49.602Z,17.96
2022-08-09T20:31:26.707Z,17.76
2022-08-09T20:34:15.416Z,17.65
2022-08-09T20:37:04.407Z,17.55
2022-08-09T20:48:52.371Z,17.19
2022-08-09T20:58:08.095Z,17.03
2022-08-09T21:01:32.446Z,16.92
2022-08-09T21:05:56.732Z,16.81
2022-08-09T21:07:20.220Z,16.79
2022-08-09T21:10:16.354Z,16.76
2022-08-09T21:13:16.916Z,16.71
2022-08-09T21:16:05.671Z,16.65
2022-08-09T21:20:17.645Z,16.59
2022-08-09T21:22:37.777Z,16.51
2022-08-09T21:28:16.191Z,16.36
2022-08-09T21:31:19.651Z,16.24
2022-08-09T21:34:06.686Z,16.15
2022-08-09T21:37:18.007Z,16.13
2022-08-09T21:43:56.717Z,15.90
2022-08-09T21:46:42.247Z,15.83
2022-08-09T21:49:28.952Z,15.80
2022-08-09T21:52:26.917Z,15.76
2022-08-09T22:01:25.906Z,15.50
2022-08-09T22:04:12.772Z,15.43
2022-08-09T22:07:04.648Z,15.39
2022-08-09T22:09:51.239Z,15.36
2022-08-09T22:12:39.034Z,15.32
2022-08-09T22:15:35.173Z,15.26
2022-08-09T22:18:24.035Z,15.17
2022-08-09T22:21:22.398Z,15.12
2022-08-09T22:24:10.348Z,15.08
2022-08-09T22:36:01.653Z,14.80
2022-08-09T22:41:45.680Z,14.75
2022-08-09T22:44:34.737Z,14.69
2022-08-09T22:53:58.225Z,14.52
2022-08-09T23:37:53.880Z,13.76
2022-08-09T23:55:49.810Z,13.48
2022-08-09T23:58:40.373Z,13.41
